This is the latest recevied weather packets stored in our database for station/object K2CAT. If no packets are shown the sender has not sent any weather packets the latest 10 day(s).
| Time | Temp. | Humidity | Pressure | Rain* | Wind** | Luminosity | Snow |
|---|---|---|---|---|---|---|---|
| 1777645530 | 12.22° C | 49% | 1012.7 hPa | 0 mm | - | 142 W/m² | - |
| 1777645225 | 11.67° C | 54% | 1012.8 hPa | 0 mm | - | 400 W/m² | - |
| 1777644921 | 11.67° C | 52% | 1012.5 hPa | 0 mm | - | 208 W/m² | - |
| 1777644619 | 11.67° C | 53% | 1012.7 hPa | 0 mm | - | 111 W/m² | - |
| 1777644315 | 11.67° C | 54% | 1012.6 hPa | 0 mm | - | 323 W/m² | - |
| 1777644011 | 11.11° C | 53% | 1012.5 hPa | 0 mm | - | 106 W/m² | - |
| 1777643708 | 11.11° C | 58% | 1012.6 hPa | 0 mm | - | 70 W/m² | - |
| 1777643406 | 10.56° C | 55% | 1012.7 hPa | 0 mm | - | 47 W/m² | - |
| 1777643102 | 10.56° C | 57% | 1012.7 hPa | 0 mm | - | 49 W/m² | - |
| 1777642799 | 10.56° C | 57% | 1012.6 hPa | 0 mm | - | 62 W/m² | - |
| 1777642495 | 10.56° C | 56% | 1012.7 hPa | 0 mm | - | 47 W/m² | - |
| 1777642192 | 10.56° C | 58% | 1012.8 hPa | 0 mm | - | 54 W/m² | - |
| 1777641890 | 10.56° C | 60% | 1012.7 hPa | 0 mm | - | 205 W/m² | - |
| 1777641590 | 10° C | 60% | 1012.6 hPa | 0 mm | - | 74 W/m² | - |
| 1777641290 | 10° C | 60% | 1013 hPa | 0 mm | - | 66 W/m² | - |
| 1777640986 | 10° C | 61% | 1013 hPa | 0 mm | - | 56 W/m² | - |
| 1777640683 | 9.44° C | 61% | 1013.1 hPa | 0 mm | - | 47 W/m² | - |
| 1777640379 | 9.44° C | 62% | 1013 hPa | 0 mm | - | 45 W/m² | - |
| 1777640076 | 9.44° C | 62% | 1013 hPa | 0 mm | - | 42 W/m² | - |
| 1777639773 | 8.89° C | 63% | 1013 hPa | 0 mm | - | 55 W/m² | - |
| 1777639471 | 8.89° C | 64% | 1013.1 hPa | 0 mm | - | 71 W/m² | - |
| 1777639167 | 8.89° C | 65% | 1013 hPa | 0 mm | - | 49 W/m² | - |
| 1777638863 | 8.89° C | 65% | 1013 hPa | 0 mm | - | 39 W/m² | - |
| 1777638559 | 8.89° C | 66% | 1012.9 hPa | 0 mm | - | 38 W/m² | - |
| 1777638256 | 8.89° C | 65% | 1013 hPa | 0 mm | - | 57 W/m² | - |
* Rain latest hour (hover to see other rain measurements)
** Current wind speed in m/s (hover to see current wind gust speed)